sensor_id;sensor_type;location;lat;lon;timestamp;pressure;altitude;pressure_sealevel;temperature;humidity
78309;BME280;67566;42.022;21.356;2023-04-03T00:00:12;97960.47;;;8.60;58.28
78309;BME280;67566;42.022;21.356;2023-04-03T00:02:37;97966.97;;;8.54;58.54
78309;BME280;67566;42.022;21.356;2023-04-03T00:05:03;97972.88;;;8.50;58.09
78309;BME280;67566;42.022;21.356;2023-04-03T00:07:29;97967.06;;;8.48;58.77
78309;BME280;67566;42.022;21.356;2023-04-03T00:09:55;97972.50;;;8.43;58.48
78309;BME280;67566;42.022;21.356;2023-04-03T00:12:21;97961.50;;;8.36;59.20
78309;BME280;67566;42.022;21.356;2023-04-03T00:14:46;97957.41;;;8.30;59.20
78309;BME280;67566;42.022;21.356;2023-04-03T00:17:12;97954.38;;;8.23;59.59
78309;BME280;67566;42.022;21.356;2023-04-03T00:19:37;97958.72;;;8.19;59.96
78309;BME280;67566;42.022;21.356;2023-04-03T00:22:03;97959.94;;;8.12;60.07
78309;BME280;67566;42.022;21.356;2023-04-03T00:24:28;97955.53;;;8.08;59.60
78309;BME280;67566;42.022;21.356;2023-04-03T00:26:54;97955.34;;;8.04;60.06
78309;BME280;67566;42.022;21.356;2023-04-03T00:29:19;97947.19;;;8.01;60.17
78309;BME280;67566;42.022;21.356;2023-04-03T00:31:45;97943.25;;;7.98;60.20
78309;BME280;67566;42.022;21.356;2023-04-03T00:34:10;97940.72;;;7.93;60.50
78309;BME280;67566;42.022;21.356;2023-04-03T00:36:36;97941.34;;;7.90;60.01
78309;BME280;67566;42.022;21.356;2023-04-03T00:39:01;97937.59;;;7.91;59.96
78309;BME280;67566;42.022;21.356;2023-04-03T00:41:27;97939.28;;;7.87;60.34
78309;BME280;67566;42.022;21.356;2023-04-03T00:43:52;97931.16;;;7.83;60.22
78309;BME280;67566;42.022;21.356;2023-04-03T00:46:18;97936.25;;;7.80;60.16
78309;BME280;67566;42.022;21.356;2023-04-03T00:48:45;97944.03;;;7.76;60.87
78309;BME280;67566;42.022;21.356;2023-04-03T00:51:23;97955.50;;;7.71;60.82
78309;BME280;67566;42.022;21.356;2023-04-03T00:53:56;97952.06;;;7.71;60.57
78309;BME280;67566;42.022;21.356;2023-04-03T00:56:25;97953.34;;;7.73;61.31
78309;BME280;67566;42.022;21.356;2023-04-03T01:01:23;97957.75;;;7.78;61.20
78309;BME280;67566;42.022;21.356;2023-04-03T01:03:49;97952.16;;;7.80;60.55
78309;BME280;67566;42.022;21.356;2023-04-03T01:06:16;97960.09;;;7.80;61.32
78309;BME280;67566;42.022;21.356;2023-04-03T01:08:43;97961.19;;;7.79;61.37
78309;BME280;67566;42.022;21.356;2023-04-03T01:11:09;97955.09;;;7.78;61.50
78309;BME280;67566;42.022;21.356;2023-04-03T01:13:34;97957.28;;;7.76;60.96
78309;BME280;67566;42.022;21.356;2023-04-03T01:16:01;97951.47;;;7.74;61.56
78309;BME280;67566;42.022;21.356;2023-04-03T01:18:28;97958.94;;;7.72;61.74
78309;BME280;67566;42.022;21.356;2023-04-03T01:26:05;97957.19;;;7.67;61.49
78309;BME280;67566;42.022;21.356;2023-04-03T01:28:33;97956.38;;;7.67;61.38
78309;BME280;67566;42.022;21.356;2023-04-03T01:33:40;97951.88;;;7.67;61.70
78309;BME280;67566;42.022;21.356;2023-04-03T01:36:06;97951.59;;;7.69;61.94
78309;BME280;67566;42.022;21.356;2023-04-03T01:38:32;97940.66;;;7.70;61.75
78309;BME280;67566;42.022;21.356;2023-04-03T01:40:57;97945.19;;;7.70;62.05
78309;BME280;67566;42.022;21.356;2023-04-03T01:43:23;97941.47;;;7.71;62.68
78309;BME280;67566;42.022;21.356;2023-04-03T01:45:48;97939.59;;;7.71;61.78
78309;BME280;67566;42.022;21.356;2023-04-03T01:48:19;97943.03;;;7.72;62.04
78309;BME280;67566;42.022;21.356;2023-04-03T01:50:45;97936.66;;;7.73;62.08
78309;BME280;67566;42.022;21.356;2023-04-03T01:53:10;97939.78;;;7.75;62.12
78309;BME280;67566;42.022;21.356;2023-04-03T01:55:36;97930.78;;;7.76;62.07
78309;BME280;67566;42.022;21.356;2023-04-03T01:58:01;97934.69;;;7.79;62.18
78309;BME280;67566;42.022;21.356;2023-04-03T02:00:27;97933.31;;;7.81;62.46
78309;BME280;67566;42.022;21.356;2023-04-03T02:02:52;97937.50;;;7.82;63.25
78309;BME280;67566;42.022;21.356;2023-04-03T02:05:18;97935.63;;;7.83;62.71
78309;BME280;67566;42.022;21.356;2023-04-03T02:07:44;97940.47;;;7.81;62.86
78309;BME280;67566;42.022;21.356;2023-04-03T02:10:09;97942.81;;;7.82;62.27
78309;BME280;67566;42.022;21.356;2023-04-03T02:12:35;97937.28;;;7.92;62.92
78309;BME280;67566;42.022;21.356;2023-04-03T02:15:01;97932.66;;;7.98;62.83
78309;BME280;67566;42.022;21.356;2023-04-03T02:17:26;97929.41;;;8.01;62.67
78309;BME280;67566;42.022;21.356;2023-04-03T02:19:52;97924.13;;;8.01;63.26
78309;BME280;67566;42.022;21.356;2023-04-03T02:22:17;97915.97;;;7.98;62.57
78309;BME280;67566;42.022;21.356;2023-04-03T02:24:43;97915.50;;;7.96;62.93
78309;BME280;67566;42.022;21.356;2023-04-03T02:27:08;97912.66;;;7.92;63.18
78309;BME280;67566;42.022;21.356;2023-04-03T02:29:34;97916.69;;;7.89;63.01
78309;BME280;67566;42.022;21.356;2023-04-03T02:31:59;97916.97;;;7.88;63.26
78309;BME280;67566;42.022;21.356;2023-04-03T02:34:25;97919.44;;;7.84;62.96
78309;BME280;67566;42.022;21.356;2023-04-03T02:36:50;97904.47;;;7.80;62.89
78309;BME280;67566;42.022;21.356;2023-04-03T02:39:16;97903.16;;;7.77;63.05
78309;BME280;67566;42.022;21.356;2023-04-03T02:41:41;97904.84;;;7.73;63.26
78309;BME280;67566;42.022;21.356;2023-04-03T02:44:10;97897.78;;;7.68;63.53
78309;BME280;67566;42.022;21.356;2023-04-03T02:46:36;97896.53;;;7.66;63.64
78309;BME280;67566;42.022;21.356;2023-04-03T02:49:02;97901.66;;;7.62;63.71
78309;BME280;67566;42.022;21.356;2023-04-03T02:51:27;97891.34;;;7.61;63.40
78309;BME280;67566;42.022;21.356;2023-04-03T02:53:53;97886.53;;;7.63;64.08
78309;BME280;67566;42.022;21.356;2023-04-03T02:56:18;97882.81;;;7.64;64.19
78309;BME280;67566;42.022;21.356;2023-04-03T02:58:45;97882.91;;;7.59;64.25
78309;BME280;67566;42.022;21.356;2023-04-03T03:01:11;97878.31;;;7.50;64.40
78309;BME280;67566;42.022;21.356;2023-04-03T03:03:36;97880.09;;;7.41;64.69
78309;BME280;67566;42.022;21.356;2023-04-03T03:06:11;97877.84;;;7.34;64.70
78309;BME280;67566;42.022;21.356;2023-04-03T03:08:37;97867.56;;;7.33;64.49
78309;BME280;67566;42.022;21.356;2023-04-03T03:11:03;97869.31;;;7.37;65.20
78309;BME280;67566;42.022;21.356;2023-04-03T03:13:29;97878.94;;;7.33;64.75
78309;BME280;67566;42.022;21.356;2023-04-03T03:15:54;97874.03;;;7.27;64.89
78309;BME280;67566;42.022;21.356;2023-04-03T03:18:21;97878.25;;;7.28;65.31
78309;BME280;67566;42.022;21.356;2023-04-03T03:20:46;97877.38;;;7.32;65.98
78309;BME280;67566;42.022;21.356;2023-04-03T03:23:12;97874.03;;;7.27;65.79
78309;BME280;67566;42.022;21.356;2023-04-03T03:25:41;97876.78;;;7.22;65.65
78309;BME280;67566;42.022;21.356;2023-04-03T03:28:07;97883.06;;;7.26;66.13
78309;BME280;67566;42.022;21.356;2023-04-03T03:30:33;97875.59;;;7.28;65.82
78309;BME280;67566;42.022;21.356;2023-04-03T03:32:58;97885.59;;;7.31;65.98
78309;BME280;67566;42.022;21.356;2023-04-03T03:35:24;97888.16;;;7.36;66.08
78309;BME280;67566;42.022;21.356;2023-04-03T03:37:49;97891.59;;;7.36;67.03
78309;BME280;67566;42.022;21.356;2023-04-03T03:40:15;97892.53;;;7.41;66.63
78309;BME280;67566;42.022;21.356;2023-04-03T03:42:40;97883.44;;;7.47;66.76
78309;BME280;67566;42.022;21.356;2023-04-03T03:45:06;97883.91;;;7.49;66.51
78309;BME280;67566;42.022;21.356;2023-04-03T03:47:32;97883.13;;;7.48;66.40
78309;BME280;67566;42.022;21.356;2023-04-03T03:49:57;97887.34;;;7.49;65.93
78309;BME280;67566;42.022;21.356;2023-04-03T03:52:23;97894.50;;;7.49;66.56
78309;BME280;67566;42.022;21.356;2023-04-03T03:54:48;97901.38;;;7.50;66.20
78309;BME280;67566;42.022;21.356;2023-04-03T03:57:14;97901.09;;;7.51;66.29
78309;BME280;67566;42.022;21.356;2023-04-03T03:59:40;97892.81;;;7.53;66.34
78309;BME280;67566;42.022;21.356;2023-04-03T04:02:07;97898.91;;;7.53;66.17
78309;BME280;67566;42.022;21.356;2023-04-03T04:04:33;97900.47;;;7.54;66.09
78309;BME280;67566;42.022;21.356;2023-04-03T04:06:58;97904.69;;;7.55;66.21
78309;BME280;67566;42.022;21.356;2023-04-03T04:09:26;97907.53;;;7.59;66.81
78309;BME280;67566;42.022;21.356;2023-04-03T04:11:51;97909.88;;;7.61;66.37
78309;BME280;67566;42.022;21.356;2023-04-03T04:14:17;97910.25;;;7.68;65.59
78309;BME280;67566;42.022;21.356;2023-04-03T04:16:43;97914.34;;;7.74;66.08
78309;BME280;67566;42.022;21.356;2023-04-03T04:19:08;97907.41;;;7.78;66.10
78309;BME280;67566;42.022;21.356;2023-04-03T04:21:34;97906.47;;;7.83;65.63
78309;BME280;67566;42.022;21.356;2023-04-03T04:23:59;97916.19;;;7.87;65.17
78309;BME280;67566;42.022;21.356;2023-04-03T04:26:25;97908.44;;;7.91;65.92
78309;BME280;67566;42.022;21.356;2023-04-03T04:28:51;97914.09;;;7.98;65.74
78309;BME280;67566;42.022;21.356;2023-04-03T04:31:16;97923.53;;;8.04;65.44
78309;BME280;67566;42.022;21.356;2023-04-03T04:33:42;97927.91;;;8.09;66.01
78309;BME280;67566;42.022;21.356;2023-04-03T04:36:07;97926.41;;;8.17;65.73
78309;BME280;67566;42.022;21.356;2023-04-03T04:38:33;97924.59;;;8.26;64.56
78309;BME280;67566;42.022;21.356;2023-04-03T04:40:58;97928.09;;;8.35;65.13
78309;BME280;67566;42.022;21.356;2023-04-03T04:43:24;97928.50;;;8.42;64.91
78309;BME280;67566;42.022;21.356;2023-04-03T04:46:06;97919.81;;;8.50;64.46
78309;BME280;67566;42.022;21.356;2023-04-03T04:48:32;97918.47;;;8.62;64.05
78309;BME280;67566;42.022;21.356;2023-04-03T04:50:58;97908.97;;;8.69;64.34
78309;BME280;67566;42.022;21.356;2023-04-03T04:53:23;97910.13;;;8.77;64.13
78309;BME280;67566;42.022;21.356;2023-04-03T04:55:48;97912.97;;;8.81;63.98
78309;BME280;67566;42.022;21.356;2023-04-03T04:58:14;97912.03;;;8.85;64.46
78309;BME280;67566;42.022;21.356;2023-04-03T05:00:40;97915.81;;;8.93;63.69
78309;BME280;67566;42.022;21.356;2023-04-03T05:03:05;97913.19;;;9.02;63.16
78309;BME280;67566;42.022;21.356;2023-04-03T05:05:31;97903.84;;;9.13;62.81
78309;BME280;67566;42.022;21.356;2023-04-03T05:07:57;97900.63;;;9.25;62.93
78309;BME280;67566;42.022;21.356;2023-04-03T05:10:22;97908.63;;;9.42;63.06
78309;BME280;67566;42.022;21.356;2023-04-03T05:12:47;97903.81;;;9.53;62.86
78309;BME280;67566;42.022;21.356;2023-04-03T05:15:13;97897.75;;;9.70;62.48
78309;BME280;67566;42.022;21.356;2023-04-03T05:17:39;97897.75;;;9.88;62.49
78309;BME280;67566;42.022;21.356;2023-04-03T05:20:05;97898.66;;;10.09;61.37
78309;BME280;67566;42.022;21.356;2023-04-03T05:22:30;97899.28;;;10.32;60.43
78309;BME280;67566;42.022;21.356;2023-04-03T05:24:56;97895.81;;;10.58;60.06
78309;BME280;67566;42.022;21.356;2023-04-03T05:27:22;97893.97;;;10.88;59.06
78309;BME280;67566;42.022;21.356;2023-04-03T05:29:49;97891.81;;;11.20;58.00
78309;BME280;67566;42.022;21.356;2023-04-03T05:32:15;97894.00;;;11.48;57.86
78309;BME280;67566;42.022;21.356;2023-04-03T05:34:41;97894.28;;;11.76;57.15
78309;BME280;67566;42.022;21.356;2023-04-03T05:37:07;97891.84;;;11.92;56.61
78309;BME280;67566;42.022;21.356;2023-04-03T05:39:32;97900.03;;;12.08;55.76
78309;BME280;67566;42.022;21.356;2023-04-03T05:41:59;97897.28;;;12.17;55.32
78309;BME280;67566;42.022;21.356;2023-04-03T05:44:24;97904.91;;;12.27;55.63
78309;BME280;67566;42.022;21.356;2023-04-03T05:46:50;97906.75;;;12.26;54.91
78309;BME280;67566;42.022;21.356;2023-04-03T05:49:15;97908.25;;;12.36;54.98
78309;BME280;67566;42.022;21.356;2023-04-03T05:51:41;97913.06;;;12.43;55.06
78309;BME280;67566;42.022;21.356;2023-04-03T05:54:13;97910.72;;;12.41;54.71
78309;BME280;67566;42.022;21.356;2023-04-03T05:56:41;97912.69;;;12.32;55.00
78309;BME280;67566;42.022;21.356;2023-04-03T05:59:06;97911.13;;;12.31;55.33
78309;BME280;67566;42.022;21.356;2023-04-03T06:01:33;97906.28;;;12.45;55.09
78309;BME280;67566;42.022;21.356;2023-04-03T06:03:59;97907.69;;;12.76;54.49
78309;BME280;67566;42.022;21.356;2023-04-03T06:06:25;97903.38;;;13.09;53.87
78309;BME280;67566;42.022;21.356;2023-04-03T06:08:50;97898.41;;;13.32;53.47
78309;BME280;67566;42.022;21.356;2023-04-03T06:11:16;97890.44;;;13.60;53.51
78309;BME280;67566;42.022;21.356;2023-04-03T06:13:42;97874.63;;;13.95;52.43
78309;BME280;67566;42.022;21.356;2023-04-03T06:16:11;97881.53;;;14.25;51.71
78309;BME280;67566;42.022;21.356;2023-04-03T06:18:39;97891.34;;;14.49;51.47
78309;BME280;67566;42.022;21.356;2023-04-03T06:21:05;97889.75;;;14.76;50.90
78309;BME280;67566;42.022;21.356;2023-04-03T06:23:32;97895.31;;;14.99;50.43
78309;BME280;67566;42.022;21.356;2023-04-03T06:25:58;97894.25;;;15.04;50.49
78309;BME280;67566;42.022;21.356;2023-04-03T06:28:23;97894.94;;;15.01;50.27
78309;BME280;67566;42.022;21.356;2023-04-03T06:30:49;97897.44;;;15.09;50.70
78309;BME280;67566;42.022;21.356;2023-04-03T06:33:15;97902.72;;;15.06;51.05
78309;BME280;67566;42.022;21.356;2023-04-03T06:35:40;97908.34;;;15.01;51.04
78309;BME280;67566;42.022;21.356;2023-04-03T06:38:06;97903.78;;;14.85;51.71
78309;BME280;67566;42.022;21.356;2023-04-03T06:40:35;97907.81;;;14.63;52.80
78309;BME280;67566;42.022;21.356;2023-04-03T06:43:01;97912.09;;;14.24;52.78
78309;BME280;67566;42.022;21.356;2023-04-03T06:45:26;97906.75;;;13.95;53.34
78309;BME280;67566;42.022;21.356;2023-04-03T06:47:53;97903.50;;;13.49;56.04
78309;BME280;67566;42.022;21.356;2023-04-03T06:50:19;97895.94;;;13.14;56.79
78309;BME280;67566;42.022;21.356;2023-04-03T06:52:44;97903.84;;;13.23;55.99
78309;BME280;67566;42.022;21.356;2023-04-03T06:55:10;97892.34;;;12.98;56.17
78309;BME280;67566;42.022;21.356;2023-04-03T06:57:36;97890.47;;;13.11;55.04
78309;BME280;67566;42.022;21.356;2023-04-03T07:00:04;97893.69;;;13.16;54.61
78309;BME280;67566;42.022;21.356;2023-04-03T07:02:29;97887.09;;;13.01;55.27
78309;BME280;67566;42.022;21.356;2023-04-03T07:04:55;97890.78;;;12.97;55.59
78309;BME280;67566;42.022;21.356;2023-04-03T07:07:21;97881.97;;;13.09;54.82
78309;BME280;67566;42.022;21.356;2023-04-03T07:09:47;97878.09;;;13.18;54.84
78309;BME280;67566;42.022;21.356;2023-04-03T07:12:13;97887.78;;;13.23;54.22
78309;BME280;67566;42.022;21.356;2023-04-03T07:14:39;97887.38;;;13.33;54.23
78309;BME280;67566;42.022;21.356;2023-04-03T07:17:04;97881.44;;;13.40;54.32
78309;BME280;67566;42.022;21.356;2023-04-03T07:19:31;97875.31;;;13.39;54.10
78309;BME280;67566;42.022;21.356;2023-04-03T07:21:57;97873.78;;;13.38;54.44
78309;BME280;67566;42.022;21.356;2023-04-03T07:24:22;97874.22;;;13.40;53.87
78309;BME280;67566;42.022;21.356;2023-04-03T07:26:52;97870.75;;;13.40;54.50
78309;BME280;67566;42.022;21.356;2023-04-03T07:29:18;97870.19;;;13.34;54.14
78309;BME280;67566;42.022;21.356;2023-04-03T07:31:44;97874.53;;;13.27;53.96
78309;BME280;67566;42.022;21.356;2023-04-03T07:34:10;97870.84;;;13.19;54.13
78309;BME280;67566;42.022;21.356;2023-04-03T07:36:36;97865.28;;;13.12;54.41
78309;BME280;67566;42.022;21.356;2023-04-03T07:39:02;97860.97;;;13.19;54.54
78309;BME280;67566;42.022;21.356;2023-04-03T07:41:28;97853.06;;;13.35;54.89
78309;BME280;67566;42.022;21.356;2023-04-03T07:43:54;97852.47;;;13.54;55.00
78309;BME280;67566;42.022;21.356;2023-04-03T07:46:20;97848.38;;;13.73;54.75
78309;BME280;67566;42.022;21.356;2023-04-03T07:48:46;97846.91;;;13.88;54.02
78309;BME280;67566;42.022;21.356;2023-04-03T07:51:11;97845.47;;;14.06;53.84
78309;BME280;67566;42.022;21.356;2023-04-03T07:53:38;97840.41;;;14.17;53.82
78309;BME280;67566;42.022;21.356;2023-04-03T07:56:03;97837.78;;;14.33;53.40
78309;BME280;67566;42.022;21.356;2023-04-03T07:58:29;97831.84;;;14.56;52.77
78309;BME280;67566;42.022;21.356;2023-04-03T08:00:55;97827.53;;;14.67;52.68
78309;BME280;67566;42.022;21.356;2023-04-03T08:03:21;97830.03;;;14.60;52.66
78309;BME280;67566;42.022;21.356;2023-04-03T08:05:48;97832.03;;;14.63;52.45
78309;BME280;67566;42.022;21.356;2023-04-03T08:08:21;97831.84;;;14.71;51.52
78309;BME280;67566;42.022;21.356;2023-04-03T08:10:54;97825.00;;;14.74;50.71
78309;BME280;67566;42.022;21.356;2023-04-03T08:13:20;97823.56;;;14.77;51.60
78309;BME280;67566;42.022;21.356;2023-04-03T08:15:46;97823.31;;;14.82;50.98
78309;BME280;67566;42.022;21.356;2023-04-03T08:18:13;97816.88;;;14.86;51.00
78309;BME280;67566;42.022;21.356;2023-04-03T08:20:39;97819.28;;;14.91;48.76
78309;BME280;67566;42.022;21.356;2023-04-03T08:23:06;97821.97;;;14.91;48.58
78309;BME280;67566;42.022;21.356;2023-04-03T08:25:32;97812.09;;;14.96;48.21
78309;BME280;67566;42.022;21.356;2023-04-03T08:27:58;97808.19;;;15.09;47.52
78309;BME280;67566;42.022;21.356;2023-04-03T08:30:23;97805.81;;;15.23;47.92
78309;BME280;67566;42.022;21.356;2023-04-03T08:32:48;97803.38;;;15.34;47.00
78309;BME280;67566;42.022;21.356;2023-04-03T08:35:14;97801.69;;;15.45;46.21
78309;BME280;67566;42.022;21.356;2023-04-03T08:37:40;97804.31;;;15.61;45.35
78309;BME280;67566;42.022;21.356;2023-04-03T08:40:17;97806.09;;;15.73;45.20
78309;BME280;67566;42.022;21.356;2023-04-03T08:45:26;97803.25;;;16.05;44.30
78309;BME280;67566;42.022;21.356;2023-04-03T08:50:58;97800.34;;;16.37;44.08
78309;BME280;67566;42.022;21.356;2023-04-03T08:53:28;97806.22;;;16.42;44.58
78309;BME280;67566;42.022;21.356;2023-04-03T08:55:57;97796.41;;;16.54;44.31
78309;BME280;67566;42.022;21.356;2023-04-03T08:58:26;97786.31;;;16.47;43.11
78309;BME280;67566;42.022;21.356;2023-04-03T09:01:02;97794.69;;;16.42;42.10
78309;BME280;67566;42.022;21.356;2023-04-03T09:03:34;97785.97;;;16.49;42.63
78309;BME280;67566;42.022;21.356;2023-04-03T09:11:16;97767.88;;;16.95;42.47
78309;BME280;67566;42.022;21.356;2023-04-03T09:14:07;97766.28;;;16.91;42.39
78309;BME280;67566;42.022;21.356;2023-04-03T09:17:03;97760.94;;;16.94;42.99
78309;BME280;67566;42.022;21.356;2023-04-03T09:19:47;97756.00;;;17.00;42.99
78309;BME280;67566;42.022;21.356;2023-04-03T09:22:27;97756.81;;;17.01;42.94
78309;BME280;67566;42.022;21.356;2023-04-03T09:25:13;97749.38;;;17.21;42.12
78309;BME280;67566;42.022;21.356;2023-04-03T09:27:39;97740.34;;;17.36;41.36
78309;BME280;67566;42.022;21.356;2023-04-03T09:30:05;97742.50;;;17.57;40.88
78309;BME280;67566;42.022;21.356;2023-04-03T09:32:35;97735.72;;;17.67;41.03
78309;BME280;67566;42.022;21.356;2023-04-03T09:35:23;97742.22;;;17.66;40.17
78309;BME280;67566;42.022;21.356;2023-04-03T09:37:54;97737.59;;;17.66;40.10
78309;BME280;67566;42.022;21.356;2023-04-03T09:42:51;97728.97;;;17.50;40.03
78309;BME280;67566;42.022;21.356;2023-04-03T09:45:33;97732.97;;;17.29;39.93
78309;BME280;67566;42.022;21.356;2023-04-03T09:50:32;97733.78;;;17.03;41.21
78309;BME280;67566;42.022;21.356;2023-04-03T09:53:06;97725.97;;;16.94;41.22
78309;BME280;67566;42.022;21.356;2023-04-03T09:55:32;97731.13;;;16.80;41.52
78309;BME280;67566;42.022;21.356;2023-04-03T09:58:04;97732.25;;;16.79;41.82
78309;BME280;67566;42.022;21.356;2023-04-03T10:00:35;97729.13;;;16.73;42.24
78309;BME280;67566;42.022;21.356;2023-04-03T10:03:03;97735.75;;;16.79;42.46
78309;BME280;67566;42.022;21.356;2023-04-03T10:10:39;97723.75;;;16.47;40.83
78309;BME280;67566;42.022;21.356;2023-04-03T10:13:20;97730.78;;;16.32;41.44
78309;BME280;67566;42.022;21.356;2023-04-03T10:16:17;97719.28;;;16.31;41.69
78309;BME280;67566;42.022;21.356;2023-04-03T10:19:16;97723.16;;;16.11;41.63
78309;BME280;67566;42.022;21.356;2023-04-03T10:22:09;97720.78;;;16.05;42.87
78309;BME280;67566;42.022;21.356;2023-04-03T10:24:58;97721.25;;;15.88;43.04
78309;BME280;67566;42.022;21.356;2023-04-03T10:30:36;97725.03;;;15.83;43.05
78309;BME280;67566;42.022;21.356;2023-04-03T10:41:46;97718.28;;;16.66;43.41
78309;BME280;67566;42.022;21.356;2023-04-03T10:49:50;97712.66;;;17.05;43.63
78309;BME280;67566;42.022;21.356;2023-04-03T10:52:27;97706.84;;;16.99;43.18
78309;BME280;67566;42.022;21.356;2023-04-03T10:57:47;97698.53;;;16.82;43.01
78309;BME280;67566;42.022;21.356;2023-04-03T11:00:16;97691.84;;;16.72;42.49
78309;BME280;67566;42.022;21.356;2023-04-03T11:02:59;97698.00;;;16.46;43.26
78309;BME280;67566;42.022;21.356;2023-04-03T11:05:34;97695.91;;;16.58;43.35
78309;BME280;67566;42.022;21.356;2023-04-03T11:11:32;97698.00;;;15.96;46.25
78309;BME280;67566;42.022;21.356;2023-04-03T11:14:01;97698.22;;;15.87;45.87
78309;BME280;67566;42.022;21.356;2023-04-03T11:16:30;97696.91;;;15.77;47.93
78309;BME280;67566;42.022;21.356;2023-04-03T11:21:46;97687.19;;;15.30;50.56
78309;BME280;67566;42.022;21.356;2023-04-03T11:24:23;97686.78;;;15.08;51.39
78309;BME280;67566;42.022;21.356;2023-04-03T11:26:51;97672.38;;;14.97;50.69
78309;BME280;67566;42.022;21.356;2023-04-03T11:29:21;97670.69;;;15.08;50.77
78309;BME280;67566;42.022;21.356;2023-04-03T11:36:55;97664.84;;;15.03;50.97
78309;BME280;67566;42.022;21.356;2023-04-03T11:39:34;97662.94;;;14.84;52.07
78309;BME280;67566;42.022;21.356;2023-04-03T11:42:15;97656.78;;;14.83;51.62
78309;BME280;67566;42.022;21.356;2023-04-03T11:44:41;97658.19;;;14.77;51.50
78309;BME280;67566;42.022;21.356;2023-04-03T11:47:12;97640.88;;;14.39;52.91
78309;BME280;67566;42.022;21.356;2023-04-03T11:50:03;97643.91;;;14.38;52.72
78309;BME280;67566;42.022;21.356;2023-04-03T12:08:43;97633.41;;;13.49;55.93
78309;BME280;67566;42.022;21.356;2023-04-03T12:21:15;97623.97;;;13.39;58.86
78309;BME280;67566;42.022;21.356;2023-04-03T12:26:26;97623.97;;;13.39;58.42
78309;BME280;67566;42.022;21.356;2023-04-03T12:28:53;97613.38;;;13.15;60.34
78309;BME280;67566;42.022;21.356;2023-04-03T12:31:23;97620.28;;;12.88;61.96
78309;BME280;67566;42.022;21.356;2023-04-03T12:34:09;97608.00;;;12.99;61.79
78309;BME280;67566;42.022;21.356;2023-04-03T12:36:50;97604.09;;;12.96;63.11
78309;BME280;67566;42.022;21.356;2023-04-03T12:42:11;97583.84;;;12.67;64.55
78309;BME280;67566;42.022;21.356;2023-04-03T12:45:06;97573.38;;;12.74;65.45
78309;BME280;67566;42.022;21.356;2023-04-03T12:47:36;97566.47;;;12.73;66.33
78309;BME280;67566;42.022;21.356;2023-04-03T12:50:18;97567.09;;;12.82;65.22
78309;BME280;67566;42.022;21.356;2023-04-03T12:52:51;97564.16;;;12.59;66.44
78309;BME280;67566;42.022;21.356;2023-04-03T12:55:20;97547.41;;;12.46;66.43
78309;BME280;67566;42.022;21.356;2023-04-03T12:57:46;97549.53;;;12.53;66.64
78309;BME280;67566;42.022;21.356;2023-04-03T13:00:19;97539.41;;;12.46;66.86
78309;BME280;67566;42.022;21.356;2023-04-03T13:02:45;97518.09;;;12.62;66.24
78309;BME280;67566;42.022;21.356;2023-04-03T13:05:16;97518.91;;;12.79;66.16
78309;BME280;67566;42.022;21.356;2023-04-03T13:07:42;97520.94;;;13.14;65.68
78309;BME280;67566;42.022;21.356;2023-04-03T13:12:35;97534.47;;;13.05;64.80
78309;BME280;67566;42.022;21.356;2023-04-03T13:15:13;97530.59;;;12.87;63.77
78309;BME280;67566;42.022;21.356;2023-04-03T13:17:41;97528.13;;;12.65;65.55
78309;BME280;67566;42.022;21.356;2023-04-03T13:20:33;97518.69;;;12.56;65.43
78309;BME280;67566;42.022;21.356;2023-04-03T13:23:07;97523.06;;;12.76;63.98
78309;BME280;67566;42.022;21.356;2023-04-03T13:25:36;97517.72;;;12.76;64.26
78309;BME280;67566;42.022;21.356;2023-04-03T13:28:05;97507.28;;;12.71;64.97
78309;BME280;67566;42.022;21.356;2023-04-03T13:30:35;97512.28;;;12.73;64.11
78309;BME280;67566;42.022;21.356;2023-04-03T13:33:05;97504.13;;;12.81;64.08
78309;BME280;67566;42.022;21.356;2023-04-03T13:35:33;97499.63;;;12.85;64.10
78309;BME280;67566;42.022;21.356;2023-04-03T13:38:03;97496.19;;;12.85;64.05
78309;BME280;67566;42.022;21.356;2023-04-03T13:40:30;97495.56;;;12.76;65.10
78309;BME280;67566;42.022;21.356;2023-04-03T13:43:14;97480.91;;;12.70;64.64
78309;BME280;67566;42.022;21.356;2023-04-03T13:45:58;97483.28;;;12.59;65.04
78309;BME280;67566;42.022;21.356;2023-04-03T13:48:24;97476.06;;;12.59;65.35
78309;BME280;67566;42.022;21.356;2023-04-03T13:51:16;97471.75;;;12.55;65.17
78309;BME280;67566;42.022;21.356;2023-04-03T13:53:49;97456.16;;;12.57;65.14
78309;BME280;67566;42.022;21.356;2023-04-03T13:59:03;97449.94;;;12.53;66.39
78309;BME280;67566;42.022;21.356;2023-04-03T14:01:54;97445.38;;;12.53;66.47
78309;BME280;67566;42.022;21.356;2023-04-03T14:04:23;97441.84;;;12.49;66.56
78309;BME280;67566;42.022;21.356;2023-04-03T14:06:49;97442.63;;;12.50;66.34
78309;BME280;67566;42.022;21.356;2023-04-03T14:09:17;97436.06;;;12.47;65.67
78309;BME280;67566;42.022;21.356;2023-04-03T14:11:43;97432.69;;;12.34;67.02
78309;BME280;67566;42.022;21.356;2023-04-03T14:14:18;97437.50;;;12.28;66.82
78309;BME280;67566;42.022;21.356;2023-04-03T14:16:48;97434.16;;;12.19;67.00
78309;BME280;67566;42.022;21.356;2023-04-03T14:19:22;97427.97;;;12.15;66.96
78309;BME280;67566;42.022;21.356;2023-04-03T14:21:49;97425.44;;;12.06;67.07
78309;BME280;67566;42.022;21.356;2023-04-03T14:24:16;97415.97;;;12.09;67.63
78309;BME280;67566;42.022;21.356;2023-04-03T14:26:43;97420.78;;;12.03;68.16
78309;BME280;67566;42.022;21.356;2023-04-03T14:29:10;97420.59;;;11.96;69.01
78309;BME280;67566;42.022;21.356;2023-04-03T14:31:36;97413.34;;;11.84;69.05
78309;BME280;67566;42.022;21.356;2023-04-03T14:34:02;97418.81;;;11.76;68.98
78309;BME280;67566;42.022;21.356;2023-04-03T14:36:30;97412.63;;;11.71;69.95
78309;BME280;67566;42.022;21.356;2023-04-03T14:38:56;97424.38;;;11.70;69.86
78309;BME280;67566;42.022;21.356;2023-04-03T14:41:23;97419.19;;;11.62;70.15